Time;durP1;ratioP1;P1;durP2;ratioP2;P2;SDS_P1;SDS_P2;PMS_P1;PMS_P2;Temp;Humidity;BMP_temperature;BMP_pressure;BME280_temperature;BME280_humidity;BME280_pressure;Samples;Min_cycle;Max_cycle;Signal;HPM_P1;HPM_P2
2023/11/01 00:02:00;;;;;;;;;;;;;;;13.92;56.08;99861.75;4972698;27;99171;-72
2023/11/01 00:04:27;;;;;;;;;;;;;;;13.91;55.93;99865.56;4984540;27;98045;-72
2023/11/01 00:06:53;;;;;;;;;;;;;;;13.90;55.83;99863.13;4987434;27;99816;-65
2023/11/01 00:09:19;;;;;;;;;;;;;;;13.86;56.16;99865.66;5002020;27;99233;-72
2023/11/01 00:11:45;;;;;;;;;;;;;;;13.87;55.95;99877.28;5004377;27;125560;-72
2023/11/01 00:14:11;;;;;;;;;;;;;;;13.84;56.02;99867.88;5005529;27;98344;-72
2023/11/01 00:16:38;;;;;;;;;;;;;;;13.84;55.79;99867.06;5018514;27;98165;-65
2023/11/01 00:19:05;;;;;;;;;;;;;;;13.83;56.27;99870.88;5003105;27;98392;-65
2023/11/01 00:21:31;;;;;;;;;;;;;;;13.81;56.19;99868.47;4988238;27;98363;-65
2023/11/01 00:23:58;;;;;;;;;;;;;;;13.79;55.87;99867.16;4981571;27;98556;-65
2023/11/01 00:26:25;;;;;;;;;;;;;;;13.77;56.20;99867.47;4988592;27;98207;-65
2023/11/01 00:28:51;;;;;;;;;;;;;;;13.74;55.99;99863.44;4988863;27;101001;-73
2023/11/01 00:31:17;;;;;;;;;;;;;;;13.73;56.29;99858.34;5021457;27;99807;-72
2023/11/01 00:33:44;;;;;;;;;;;;;;;13.72;55.91;99865.69;4991305;27;98243;-72
2023/11/01 00:36:12;;;;;;;;;;;;;;;13.70;55.82;99857.03;4974359;27;98699;-66
2023/11/01 00:38:38;;;;;;;;;;;;;;;13.68;56.27;99855.75;5006979;27;98404;-73
2023/11/01 00:41:05;;;;;;;;;;;;;;;13.66;55.95;99858.75;4997863;27;98350;-72
2023/11/01 00:43:32;;;;;;;;;;;;;;;13.63;55.83;99862.06;4989002;27;99192;-73
2023/11/01 00:45:59;;;;;;;;;;;;;;;13.61;56.31;99867.00;5007100;27;98729;-66
2023/11/01 00:48:26;;;;;;;;;;;;;;;13.60;56.04;99873.50;4984890;27;98242;-73
2023/11/01 00:50:53;;;;;;;;;;;;;;;13.58;56.31;99870.28;4974252;27;98301;-73
2023/11/01 00:53:21;;;;;;;;;;;;;;;13.57;56.11;99874.09;5005040;27;99064;-65
2023/11/01 00:55:47;;;;;;;;;;;;;;;13.55;56.25;99870.88;5002944;27;98629;-65
2023/11/01 00:58:14;;;;;;;;;;;;;;;13.55;56.25;99876.31;5014892;27;98272;-73
2023/11/01 01:00:40;;;;;;;;;;;;;;;13.53;56.25;99865.00;5000986;27;98054;-72
2023/11/01 01:03:10;;;;;;;;;;;;;;;13.52;56.08;99871.50;4987592;27;98258;-65
2023/11/01 01:05:36;;;;;;;;;;;;;;;13.51;56.01;99873.38;4986544;27;98219;-72
2023/11/01 01:08:02;;;;;;;;;;;;;;;13.51;55.94;99875.31;4997186;27;98017;-73
2023/11/01 01:10:29;;;;;;;;;;;;;;;13.51;56.02;99869.88;5006397;27;98154;-72
2023/11/01 01:12:55;;;;;;;;;;;;;;;13.49;56.04;99875.63;4966275;27;98360;-73
2023/11/01 01:15:21;;;;;;;;;;;;;;;13.49;56.00;99872.09;4997597;27;98493;-72
2023/11/01 01:17:48;;;;;;;;;;;;;;;13.50;56.02;99879.13;5000493;27;98246;-66
2023/11/01 01:20:15;;;;;;;;;;;;;;;13.48;55.98;99878.63;5003354;27;99130;-65
2023/11/01 01:22:41;;;;;;;;;;;;;;;13.49;56.20;99877.53;4964479;27;98003;-72
2023/11/01 01:25:07;;;;;;;;;;;;;;;13.49;55.80;99880.22;5013741;27;97983;-72
2023/11/01 01:27:33;;;;;;;;;;;;;;;13.49;55.83;99885.66;4999932;27;116438;-72
2023/11/01 01:29:59;;;;;;;;;;;;;;;13.48;55.91;99889.47;4999841;27;99597;-65
2023/11/01 01:32:26;;;;;;;;;;;;;;;13.48;55.94;99886.75;4980481;27;98063;-72
2023/11/01 01:34:53;;;;;;;;;;;;;;;13.48;55.80;99903.78;4980698;27;103251;-72
2023/11/01 01:37:19;;;;;;;;;;;;;;;13.49;56.00;99893.78;4969763;27;98396;-72
2023/11/01 01:39:45;;;;;;;;;;;;;;;13.49;55.88;99888.34;4969961;27;98195;-72
2023/11/01 01:42:13;;;;;;;;;;;;;;;13.49;55.88;99883.72;4999544;27;99108;-66
2023/11/01 01:44:39;;;;;;;;;;;;;;;13.49;56.09;99881.03;4981122;27;98229;-66
2023/11/01 01:47:06;;;;;;;;;;;;;;;13.49;56.22;99872.91;4995072;27;99433;-72
2023/11/01 01:49:32;;;;;;;;;;;;;;;13.50;55.81;99873.69;4982844;27;98211;-66
2023/11/01 01:51:59;;;;;;;;;;;;;;;13.49;55.86;99872.91;4981923;27;98385;-66
2023/11/01 01:54:26;;;;;;;;;;;;;;;13.49;56.17;99864.78;5015416;27;98235;-66
2023/11/01 01:56:52;;;;;;;;;;;;;;;13.49;55.85;99864.78;5001484;27;98518;-72
2023/11/01 01:59:18;;;;;;;;;;;;;;;13.50;56.08;99857.47;5009850;27;103729;-66
2023/11/01 02:01:44;;;;;;;;;;;;;;;13.49;55.79;99856.66;5009459;27;99125;-72
2023/11/01 02:04:12;;;;;;;;;;;;;;;13.50;55.79;99857.47;5001454;27;98951;-65
2023/11/01 02:06:39;;;;;;;;;;;;;;;13.49;56.19;99853.94;4995889;27;99916;-65
2023/11/01 02:09:05;;;;;;;;;;;;;;;13.48;56.17;99857.78;4998951;27;98374;-65
2023/11/01 02:11:36;;;;;;;;;;;;;;;13.49;55.81;99853.16;4983112;27;98675;-66
2023/11/01 02:14:02;;;;;;;;;;;;;;;13.48;55.90;99844.22;4980157;27;98555;-65
2023/11/01 02:16:28;;;;;;;;;;;;;;;13.48;55.97;99852.34;5000441;27;98328;-71
2023/11/01 02:18:56;;;;;;;;;;;;;;;13.48;56.12;99855.06;4981586;27;99119;-65
2023/11/01 02:21:22;;;;;;;;;;;;;;;13.48;56.02;99854.25;4998855;27;99539;-72
2023/11/01 02:23:49;;;;;;;;;;;;;;;13.49;56.17;99850.44;5015495;27;98261;-72
2023/11/01 02:26:15;;;;;;;;;;;;;;;13.47;56.18;99848.03;5018282;27;101392;-72
2023/11/01 02:28:41;;;;;;;;;;;;;;;13.47;55.98;99850.72;4995112;27;98489;-72
2023/11/01 02:31:08;;;;;;;;;;;;;;;13.48;55.80;99854.25;4984685;27;99443;-65
2023/11/01 02:33:35;;;;;;;;;;;;;;;13.46;55.84;99848.34;5012571;27;98388;-72
2023/11/01 02:36:02;;;;;;;;;;;;;;;13.47;55.80;99856.16;5000929;27;98372;-65
2023/11/01 02:38:29;;;;;;;;;;;;;;;13.46;55.93;99853.75;4998997;27;98236;-72
2023/11/01 02:40:55;;;;;;;;;;;;;;;13.47;55.90;99849.94;4994425;27;98776;-65
2023/11/01 02:43:21;;;;;;;;;;;;;;;13.46;56.08;99849.13;4992524;27;98135;-65
2023/11/01 02:45:48;;;;;;;;;;;;;;;13.47;56.13;99855.34;4993820;27;98552;-65
2023/11/01 02:48:14;;;;;;;;;;;;;;;13.47;56.24;99852.63;5012015;27;98003;-71
2023/11/01 02:50:40;;;;;;;;;;;;;;;13.44;56.00;99854.06;5018424;27;98185;-73
2023/11/01 02:53:08;;;;;;;;;;;;;;;13.46;55.91;99854.56;4963975;27;98335;-65
2023/11/01 02:55:34;;;;;;;;;;;;;;;13.46;56.12;99851.03;4987085;27;97955;-71
2023/11/01 02:58:02;;;;;;;;;;;;;;;13.45;56.15;99863.78;4964316;27;98873;-65
2023/11/01 03:00:28;;;;;;;;;;;;;;;13.46;56.23;99857.25;5010243;27;100664;-71
2023/11/01 03:02:57;;;;;;;;;;;;;;;13.46;55.77;99854.56;4995385;27;98207;-71
2023/11/01 03:05:27;;;;;;;;;;;;;;;13.45;55.93;99861.06;4982623;27;98937;-71
2023/11/01 03:07:54;;;;;;;;;;;;;;;13.45;56.16;99855.66;5000321;27;98780;-65
2023/11/01 03:10:21;;;;;;;;;;;;;;;13.45;56.09;99855.66;4984470;27;98203;-72
2023/11/01 03:12:47;;;;;;;;;;;;;;;13.46;56.08;99864.56;4997033;27;97927;-71
2023/11/01 03:15:14;;;;;;;;;;;;;;;13.44;55.76;99854.06;4993613;27;98015;-68
2023/11/01 03:17:42;;;;;;;;;;;;;;;13.45;56.21;99855.66;4981216;27;98158;-65
2023/11/01 03:20:08;;;;;;;;;;;;;;;13.44;55.85;99862.19;4977565;27;98310;-71
2023/11/01 03:22:34;;;;;;;;;;;;;;;13.44;56.05;99864.06;5001978;27;98360;-71
2023/11/01 03:25:01;;;;;;;;;;;;;;;13.44;55.85;99858.66;4994676;27;99854;-72
2023/11/01 03:27:29;;;;;;;;;;;;;;;13.44;55.78;99861.34;4960325;27;98329;-66
2023/11/01 03:29:58;;;;;;;;;;;;;;;13.43;56.05;99865.16;4965187;27;98208;-72
2023/11/01 03:32:24;;;;;;;;;;;;;;;13.42;56.15;99869.00;4983376;27;99567;-65
2023/11/01 03:34:52;;;;;;;;;;;;;;;13.42;55.93;99875.19;4968576;27;97937;-72
2023/11/01 03:37:18;;;;;;;;;;;;;;;13.42;56.11;99863.56;5007326;27;100104;-71
2023/11/01 03:39:45;;;;;;;;;;;;;;;13.41;56.12;99870.91;4997251;27;98100;-71
2023/11/01 03:42:12;;;;;;;;;;;;;;;13.42;56.14;99869.78;4979996;27;99189;-65
2023/11/01 03:44:38;;;;;;;;;;;;;;;13.42;56.15;99880.63;4978339;27;99443;-64
2023/11/01 03:47:05;;;;;;;;;;;;;;;13.42;55.91;99871.69;4992576;27;98196;-65
2023/11/01 03:49:32;;;;;;;;;;;;;;;13.41;56.24;99868.19;4982478;27;98377;-65
2023/11/01 03:52:02;;;;;;;;;;;;;;;13.40;55.83;99873.88;4995638;27;98476;-65
2023/11/01 03:54:29;;;;;;;;;;;;;;;13.40;55.92;99880.13;4969564;27;98563;-71
2023/11/01 03:56:56;;;;;;;;;;;;;;;13.40;56.04;99871.19;5000165;27;98511;-72
2023/11/01 03:59:22;;;;;;;;;;;;;;;13.38;56.26;99876.91;4962282;27;98358;-66
2023/11/01 04:01:49;;;;;;;;;;;;;;;13.37;56.18;99871.81;4996449;27;98244;-66
2023/11/01 04:04:15;;;;;;;;;;;;;;;13.35;55.85;99874.78;4982201;27;100230;-72
2023/11/01 04:06:43;;;;;;;;;;;;;;;13.35;56.10;99874.00;4960792;27;97887;-66
2023/11/01 04:09:10;;;;;;;;;;;;;;;13.34;55.72;99880.50;4962941;27;98078;-66
2023/11/01 04:11:36;;;;;;;;;;;;;;;13.31;55.99;99879.19;4977819;27;98398;-66
2023/11/01 04:14:03;;;;;;;;;;;;;;;13.29;55.88;99876.00;4997846;27;99749;-66
2023/11/01 04:16:29;;;;;;;;;;;;;;;13.29;55.98;99877.91;4995243;27;99963;-72
2023/11/01 04:18:59;;;;;;;;;;;;;;;13.27;55.93;99875.50;4986497;27;99524;-66
2023/11/01 04:21:26;;;;;;;;;;;;;;;13.27;56.24;99878.19;4976129;27;100868;-72
2023/11/01 04:23:52;;;;;;;;;;;;;;;13.26;56.09;99882.00;4999584;27;99176;-66
2023/11/01 04:26:19;;;;;;;;;;;;;;;13.24;55.87;99876.91;4983128;27;98459;-66
2023/11/01 04:28:46;;;;;;;;;;;;;;;13.24;56.06;99885.03;4982290;27;98222;-66
2023/11/01 04:31:13;;;;;;;;;;;;;;;13.24;56.07;99879.63;4999561;27;98141;-66
2023/11/01 04:33:39;;;;;;;;;;;;;;;13.24;56.04;99881.50;4986877;27;98118;-73
2023/11/01 04:36:08;;;;;;;;;;;;;;;13.24;56.10;99876.91;4993636;27;104473;-66
2023/11/01 04:38:36;;;;;;;;;;;;;;;13.22;56.24;99879.06;5012958;27;98338;-72
2023/11/01 04:41:03;;;;;;;;;;;;;;;13.23;56.20;99872.56;4979796;27;98332;-66
2023/11/01 04:43:30;;;;;;;;;;;;;;;13.22;56.26;99868.25;4971323;27;98136;-72
2023/11/01 04:45:56;;;;;;;;;;;;;;;13.22;56.15;99870.94;4984041;27;98084;-72
2023/11/01 04:48:23;;;;;;;;;;;;;;;13.23;56.08;99874.47;4987871;27;98304;-67
2023/11/01 04:50:49;;;;;;;;;;;;;;;13.22;56.11;99865.53;4997304;27;98455;-66
2023/11/01 04:53:16;;;;;;;;;;;;;;;13.21;56.10;99868.56;4999543;27;98110;-72
2023/11/01 04:55:42;;;;;;;;;;;;;;;13.20;55.98;99869.63;5001639;27;98756;-72
2023/11/01 04:58:08;;;;;;;;;;;;;;;13.18;56.31;99878.06;5004088;27;98408;-66
2023/11/01 05:00:36;;;;;;;;;;;;;;;13.16;55.88;99874.03;4980536;27;119240;-66
2023/11/01 05:03:02;;;;;;;;;;;;;;;13.15;55.79;99875.16;4980992;27;98731;-72
2023/11/01 05:05:31;;;;;;;;;;;;;;;13.13;55.90;99878.16;4999411;27;99214;-71
2023/11/01 05:07:57;;;;;;;;;;;;;;;13.12;56.19;99875.72;4967414;27;97981;-72
2023/11/01 05:10:24;;;;;;;;;;;;;;;13.11;56.00;99876.84;5000470;27;99563;-65
2023/11/01 05:12:51;;;;;;;;;;;;;;;13.09;56.13;99873.66;5014566;27;99729;-72
2023/11/01 05:15:17;;;;;;;;;;;;;;;13.08;56.22;99880.94;4984612;27;98995;-66
2023/11/01 05:17:44;;;;;;;;;;;;;;;13.05;56.09;99870.72;4988546;27;98296;-65
2023/11/01 05:20:10;;;;;;;;;;;;;;;13.06;56.34;99877.75;4997528;27;97936;-72
2023/11/01 05:22:36;;;;;;;;;;;;;;;13.06;55.95;99871.53;5003554;27;98368;-72
2023/11/01 05:25:13;;;;;;;;;;;;;;;13.06;56.16;99874.25;5004671;27;98360;-66
2023/11/01 05:27:40;;;;;;;;;;;;;;;13.06;56.26;99874.25;4972255;27;99465;-72
2023/11/01 05:30:08;;;;;;;;;;;;;;;13.05;56.25;99869.91;4983262;27;98048;-65
2023/11/01 05:32:35;;;;;;;;;;;;;;;13.05;55.87;99873.44;4978820;27;98146;-66
2023/11/01 05:35:02;;;;;;;;;;;;;;;13.06;56.11;99871.53;4978432;27;98443;-66
2023/11/01 05:37:28;;;;;;;;;;;;;;;13.06;56.22;99876.94;4969337;27;99718;-66
2023/11/01 05:39:54;;;;;;;;;;;;;;;13.05;56.29;99873.44;4982400;27;97848;-74
2023/11/01 05:42:21;;;;;;;;;;;;;;;13.06;56.26;99879.66;4961354;27;98757;-73
2023/11/01 05:44:47;;;;;;;;;;;;;;;13.06;55.96;99877.75;4987839;27;100546;-66
2023/11/01 05:47:14;;;;;;;;;;;;;;;13.05;56.12;99883.44;4998412;27;99758;-67
2023/11/01 05:49:40;;;;;;;;;;;;;;;13.06;56.11;99885.06;5003667;27;98634;-74
2023/11/01 05:52:09;;;;;;;;;;;;;;;13.06;56.32;99882.34;4972465;27;98240;-73
2023/11/01 05:54:36;;;;;;;;;;;;;;;13.06;56.04;99879.66;4987090;27;100493;-73
2023/11/01 05:57:03;;;;;;;;;;;;;;;13.05;56.24;99883.44;4980881;27;98345;-66
2023/11/01 05:59:29;;;;;;;;;;;;;;;13.06;56.19;99885.06;4985411;27;98519;-74
2023/11/01 06:01:55;;;;;;;;;;;;;;;13.05;56.27;99889.66;4995060;27;99968;-66
2023/11/01 06:04:21;;;;;;;;;;;;;;;13.05;56.03;99891.53;4996906;27;99985;-65
2023/11/01 06:06:47;;;;;;;;;;;;;;;13.06;55.99;99896.69;5000932;27;98139;-66
2023/11/01 06:09:19;;;;;;;;;;;;;;;13.05;56.27;99886.13;4987112;27;99334;-65
2023/11/01 06:11:45;;;;;;;;;;;;;;;13.05;56.17;99889.66;4968011;27;98681;-66
2023/11/01 06:14:12;;;;;;;;;;;;;;;13.05;56.18;99889.66;4996626;27;102514;-66
2023/11/01 06:16:38;;;;;;;;;;;;;;;13.07;56.00;99889.38;5013393;27;98762;-73
2023/11/01 06:19:04;;;;;;;;;;;;;;;13.08;56.06;99891.75;4982526;27;98443;-73
2023/11/01 06:21:30;;;;;;;;;;;;;;;13.08;55.89;99894.47;4982915;27;98384;-66
2023/11/01 06:23:57;;;;;;;;;;;;;;;13.11;55.68;99888.47;4982004;27;100566;-73
2023/11/01 06:26:24;;;;;;;;;;;;;;;13.15;56.09;99899.50;5003686;27;98151;-73
2023/11/01 06:28:51;;;;;;;;;;;;;;;13.18;55.82;99897.00;5011777;27;98184;-73
2023/11/01 06:31:19;;;;;;;;;;;;;;;13.21;55.64;99893.72;4961320;27;101134;-72
2023/11/01 06:33:45;;;;;;;;;;;;;;;13.25;55.66;99899.34;4993615;27;98287;-73
2023/11/01 06:36:11;;;;;;;;;;;;;;;13.27;55.64;99895.22;4963290;27;99141;-72
2023/11/01 06:38:37;;;;;;;;;;;;;;;13.31;55.69;99897.34;4992104;27;122656;-66
2023/11/01 06:41:04;;;;;;;;;;;;;;;13.36;55.90;99902.66;4975105;27;100302;-73
2023/11/01 06:43:32;;;;;;;;;;;;;;;13.36;55.95;99898.06;4991636;27;98388;-66
2023/11/01 06:45:58;;;;;;;;;;;;;;;13.39;55.57;99902.06;4980479;27;100166;-66
2023/11/01 06:48:24;;;;;;;;;;;;;;;13.45;55.88;99904.38;4978222;27;98323;-73
2023/11/01 06:50:50;;;;;;;;;;;;;;;13.55;55.75;99897.97;4992464;27;98209;-65
2023/11/01 06:53:16;;;;;;;;;;;;;;;13.59;55.46;99898.97;4993074;27;112914;-66
2023/11/01 06:55:42;;;;;;;;;;;;;;;13.62;55.45;99894.88;4970303;27;98207;-66
2023/11/01 06:58:08;;;;;;;;;;;;;;;13.66;55.76;99893.97;4984523;27;98086;-73
2023/11/01 07:00:34;;;;;;;;;;;;;;;13.74;55.61;99895.97;4980928;27;100139;-73
2023/11/01 07:03:00;;;;;;;;;;;;;;;13.87;55.31;99893.53;5008966;27;98462;-73
2023/11/01 07:05:27;;;;;;;;;;;;;;;13.93;55.53;99889.63;4959157;27;98294;-73
2023/11/01 07:07:53;;;;;;;;;;;;;;;14.02;55.43;99895.94;4976012;27;98504;-67
2023/11/01 07:10:20;;;;;;;;;;;;;;;14.10;55.15;99897.91;4993623;27;98887;-66
2023/11/01 07:12:46;;;;;;;;;;;;;;;14.13;55.35;99889.19;4988089;27;98416;-66
2023/11/01 07:15:13;;;;;;;;;;;;;;;14.18;55.35;99888.28;4977105;27;99274;-66
2023/11/01 07:17:39;;;;;;;;;;;;;;;14.22;55.33;99898.19;4975009;27;100037;-66
2023/11/01 07:20:06;;;;;;;;;;;;;;;14.27;55.35;99896.50;4980463;27;100337;-66
2023/11/01 07:22:33;;;;;;;;;;;;;;;14.34;55.31;99894.94;4974270;27;100421;-66
2023/11/01 07:24:59;;;;;;;;;;;;;;;14.39;55.05;99897.56;4963811;27;98116;-66
2023/11/01 07:27:26;;;;;;;;;;;;;;;14.41;55.40;99900.75;4976336;27;98545;-73
2023/11/01 07:29:52;;;;;;;;;;;;;;;14.43;55.34;99898.56;4992122;27;98499;-66
2023/11/01 07:32:20;;;;;;;;;;;;;;;14.48;55.35;99898.44;4996001;27;99053;-66
2023/11/01 07:34:46;;;;;;;;;;;;;;;14.58;54.98;99899.31;4981544;27;98062;-66
2023/11/01 07:37:12;;;;;;;;;;;;;;;14.71;55.15;99893.06;4962221;27;98328;-72
2023/11/01 07:39:39;;;;;;;;;;;;;;;14.87;54.72;99898.91;4975942;27;120538;-66
2023/11/01 07:42:05;;;;;;;;;;;;;;;15.00;54.87;99898.03;4982245;27;99300;-73
2023/11/01 07:44:31;;;;;;;;;;;;;;;15.10;54.66;99896.97;4963030;27;98661;-73
2023/11/01 07:46:57;;;;;;;;;;;;;;;15.20;54.66;99894.78;4980298;27;98411;-66
2023/11/01 07:49:23;;;;;;;;;;;;;;;15.39;54.53;99893.75;4993000;27;99538;-74
2023/11/01 07:51:50;;;;;;;;;;;;;;;15.58;54.32;99897.03;4972824;27;98137;-73
2023/11/01 07:54:16;;;;;;;;;;;;;;;15.83;54.18;99890.09;4976072;27;98297;-65
2023/11/01 07:56:42;;;;;;;;;;;;;;;16.23;53.75;99884.59;5007245;27;98316;-73
2023/11/01 07:59:08;;;;;;;;;;;;;;;16.33;53.72;99886.19;4993433;27;99407;-73
2023/11/01 08:01:36;;;;;;;;;;;;;;;16.47;53.92;99884.13;5001952;27;104931;-66
2023/11/01 08:04:03;;;;;;;;;;;;;;;16.55;54.03;99883.31;4990830;27;100407;-66
2023/11/01 08:06:29;;;;;;;;;;;;;;;16.71;53.95;99886.34;4995895;27;98163;-66
2023/11/01 08:08:58;;;;;;;;;;;;;;;17.16;53.55;99877.78;4986726;27;98656;-66
2023/11/01 08:11:24;;;;;;;;;;;;;;;18.63;51.79;99873.38;4981253;27;100261;-74
2023/11/01 08:13:50;;;;;;;;;;;;;;;19.47;51.26;99884.06;4995740;27;99650;-74
2023/11/01 08:16:16;;;;;;;;;;;;;;;19.56;51.48;99885.53;4984773;27;98027;-66
2023/11/01 08:18:42;;;;;;;;;;;;;;;20.71;50.30;99887.09;4997743;27;98117;-74
2023/11/01 08:21:09;;;;;;;;;;;;;;;21.58;49.88;99884.66;4977877;27;118690;-74
2023/11/01 08:23:35;;;;;;;;;;;;;;;22.54;48.98;99886.81;5010825;27;98295;-74
2023/11/01 08:26:02;;;;;;;;;;;;;;;23.42;48.49;99892.41;5007546;27;114079;-67
2023/11/01 08:28:28;;;;;;;;;;;;;;;24.18;48.56;99897.09;4981628;27;99481;-74
2023/11/01 08:30:55;;;;;;;;;;;;;;;24.99;48.63;99890.97;4999514;27;98060;-75
2023/11/01 08:33:21;;;;;;;;;;;;;;;25.88;48.49;99900.06;5012827;27;99125;-68
2023/11/01 08:35:47;;;;;;;;;;;;;;;26.96;48.23;99887.56;4992943;27;98205;-67
2023/11/01 08:38:14;;;;;;;;;;;;;;;28.19;47.36;99880.81;5014261;27;100452;-68
2023/11/01 08:40:40;;;;;;;;;;;;;;;29.52;46.82;99892.78;4981311;27;98346;-75
2023/11/01 08:43:06;;;;;;;;;;;;;;;30.93;45.48;99888.84;4998790;27;98263;-68
2023/11/01 08:45:32;;;;;;;;;;;;;;;31.46;45.24;99878.88;4980683;27;98189;-73
2023/11/01 08:48:00;;;;;;;;;;;;;;;32.11;45.42;99877.72;4999426;27;98353;-74
2023/11/01 08:50:26;;;;;;;;;;;;;;;32.38;45.67;99872.78;4993886;27;98225;-74
2023/11/01 08:52:53;;;;;;;;;;;;;;;32.28;45.86;99878.59;4998411;27;98025;-74
2023/11/01 08:55:20;;;;;;;;;;;;;;;32.21;47.07;99871.94;4997633;27;98032;-74
2023/11/01 08:57:46;;;;;;;;;;;;;;;32.28;46.92;99871.03;4993128;27;99203;-74
2023/11/01 09:00:13;;;;;;;;;;;;;;;32.40;47.82;99872.41;4976218;27;98232;-74
2023/11/01 09:02:39;;;;;;;;;;;;;;;32.56;47.99;99866.88;4961071;27;100072;-73
2023/11/01 09:05:06;;;;;;;;;;;;;;;32.82;47.92;99864.31;4998957;27;98168;-67
2023/11/01 09:07:32;;;;;;;;;;;;;;;33.20;47.66;99857.03;4977794;27;98740;-74
2023/11/01 09:09:59;;;;;;;;;;;;;;;33.72;47.26;99866.53;4990509;27;103561;-68
2023/11/01 09:12:24;;;;;;;;;;;;;;;33.76;47.46;99867.22;4994298;27;98179;-74
2023/11/01 09:14:51;;;;;;;;;;;;;;;32.41;49.44;99860.03;4992258;27;98089;-74
2023/11/01 09:17:17;;;;;;;;;;;;;;;31.47;50.35;99849.81;4990795;27;98944;-67
2023/11/01 09:19:43;;;;;;;;;;;;;;;30.51;51.10;99846.50;4992468;27;98398;-73
2023/11/01 09:22:11;;;;;;;;;;;;;;;29.86;51.36;99844.88;4979335;27;98166;-67
2023/11/01 09:24:38;;;;;;;;;;;;;;;29.14;52.05;99841.94;4965766;27;98046;-73
2023/11/01 09:27:05;;;;;;;;;;;;;;;28.34;52.79;99843.56;4983685;27;98619;-66
2023/11/01 09:29:32;;;;;;;;;;;;;;;27.58;53.29;99831.88;5010214;27;98173;-67
2023/11/01 09:31:58;;;;;;;;;;;;;;;26.99;53.69;99839.75;4963392;27;125967;-67
2023/11/01 09:34:24;;;;;;;;;;;;;;;26.57;53.71;99830.22;4997265;27;98913;-73
2023/11/01 09:36:51;;;;;;;;;;;;;;;26.31;53.63;99833.25;4994680;27;110972;-67
2023/11/01 09:39:18;;;;;;;;;;;;;;;26.11;53.57;99833.56;4960767;27;98395;-67
2023/11/01 09:41:48;;;;;;;;;;;;;;;25.92;53.47;99836.63;4975118;27;98436;-67
2023/11/01 09:44:17;;;;;;;;;;;;;;;25.78;53.30;99829.06;4979071;27;98348;-67
2023/11/01 09:46:45;;;;;;;;;;;;;;;25.66;53.39;99824.63;4979021;27;99857;-67
2023/11/01 09:49:12;;;;;;;;;;;;;;;25.49;53.30;99827.25;4996773;27;100413;-66
2023/11/01 09:51:38;;;;;;;;;;;;;;;25.32;53.43;99828.72;4996235;27;99810;-74
2023/11/01 09:54:09;;;;;;;;;;;;;;;25.18;53.47;99835.66;4982046;27;105246;-67
2023/11/01 09:56:42;;;;;;;;;;;;;;;25.00;53.36;99831.97;4995496;27;99959;-65
2023/11/01 09:59:09;;;;;;;;;;;;;;;24.78;53.53;99830.94;4995561;27;99534;-76
2023/11/01 10:01:36;;;;;;;;;;;;;;;24.70;53.15;99832.84;4998362;27;98217;-64
2023/11/01 10:04:03;;;;;;;;;;;;;;;24.71;52.88;99837.16;4978951;27;98176;-64
2023/11/01 10:06:29;;;;;;;;;;;;;;;25.06;52.41;99824.13;4961095;27;99037;-70
2023/11/01 10:08:55;;;;;;;;;;;;;;;25.53;51.66;99825.31;4977328;27;126916;-70
2023/11/01 10:11:22;;;;;;;;;;;;;;;25.35;51.83;99819.66;4998102;27;99246;-70
2023/11/01 10:13:49;;;;;;;;;;;;;;;25.46;51.79;99821.31;4979783;27;99721;-71
2023/11/01 10:16:16;;;;;;;;;;;;;;;25.57;51.42;99812.31;4978071;27;99048;-64
2023/11/01 10:18:43;;;;;;;;;;;;;;;25.29;51.98;99804.66;4996754;27;98243;-65
2023/11/01 10:21:09;;;;;;;;;;;;;;;24.92;52.20;99802.75;4982248;27;98461;-70
2023/11/01 10:23:36;;;;;;;;;;;;;;;24.69;52.58;99814.72;4991035;27;98066;-65
2023/11/01 10:26:03;;;;;;;;;;;;;;;24.82;52.38;99806.19;5004148;27;99214;-64
2023/11/01 10:28:49;;;;;;;;;;;;;;;25.30;51.33;99804.25;5009264;27;98394;-65
2023/11/01 10:31:15;;;;;;;;;;;;;;;25.98;50.43;99799.19;4972540;27;133831;-65
2023/11/01 10:33:42;;;;;;;;;;;;;;;26.42;50.25;99801.72;4990393;27;98187;-65
2023/11/01 10:36:09;;;;;;;;;;;;;;;27.44;48.91;99792.38;4962242;27;98764;-70
2023/11/01 10:38:35;;;;;;;;;;;;;;;28.21;48.57;99790.56;5004625;27;99408;-65
2023/11/01 10:41:03;;;;;;;;;;;;;;;29.44;47.22;99786.59;4987589;27;98734;-69
2023/11/01 10:43:30;;;;;;;;;;;;;;;29.43;47.32;99787.75;4973557;27;98544;-64
2023/11/01 10:45:58;;;;;;;;;;;;;;;27.34;50.40;99774.59;4969635;27;99541;-64
2023/11/01 10:48:31;;;;;;;;;;;;;;;26.64;51.14;99774.16;4985394;27;98167;-70
2023/11/01 10:50:57;;;;;;;;;;;;;;;25.83;52.10;99775.47;4975259;27;98773;-71
2023/11/01 10:53:23;;;;;;;;;;;;;;;25.17;52.58;99772.66;4982076;27;98696;-71
2023/11/01 10:55:53;;;;;;;;;;;;;;;24.74;52.63;99769.50;5008521;27;98320;-71
2023/11/01 10:58:23;;;;;;;;;;;;;;;24.39;52.59;99756.16;4983843;27;99823;-65
2023/11/01 11:01:06;;;;;;;;;;;;;;;24.10;52.94;99766.84;4994933;27;98258;-65
2023/11/01 11:04:02;;;;;;;;;;;;;;;23.84;52.69;99762.19;4977353;27;99706;-64
2023/11/01 11:06:42;;;;;;;;;;;;;;;23.63;52.74;99757.16;4993872;27;98185;-64
2023/11/01 11:09:22;;;;;;;;;;;;;;;23.42;52.96;99757.66;4979218;27;98420;-71
2023/11/01 11:12:17;;;;;;;;;;;;;;;23.11;53.21;99749.69;4979454;27;99579;-64
2023/11/01 11:14:44;;;;;;;;;;;;;;;22.65;53.41;99739.50;4998002;27;98277;-65
2023/11/01 11:17:13;;;;;;;;;;;;;;;22.32;53.70;99737.34;4963550;27;99118;-65
2023/11/01 11:20:07;;;;;;;;;;;;;;;22.04;53.77;99735.59;4977878;27;117547;-70
2023/11/01 11:22:55;;;;;;;;;;;;;;;21.80;53.87;99741.38;5011185;27;98554;-70
2023/11/01 11:25:48;;;;;;;;;;;;;;;21.69;53.55;99748.56;4996607;27;98018;-70
2023/11/01 11:28:32;;;;;;;;;;;;;;;21.63;53.57;99736.31;5000475;27;98300;-69
2023/11/01 11:31:05;;;;;;;;;;;;;;;21.68;53.32;99736.81;5012215;27;98453;-65
2023/11/01 11:33:52;;;;;;;;;;;;;;;21.73;52.87;99733.81;4975749;27;98470;-70
2023/11/01 11:36:26;;;;;;;;;;;;;;;21.70;53.14;99729.03;4983020;27;98287;-70
2023/11/01 11:39:00;;;;;;;;;;;;;;;21.73;53.04;99733.00;4960297;27;98909;-71
2023/11/01 11:41:39;;;;;;;;;;;;;;;21.72;52.94;99729.47;4960007;27;100180;-64
2023/11/01 11:44:06;;;;;;;;;;;;;;;21.71;52.92;99727.88;4995614;27;98450;-70
2023/11/01 11:46:41;;;;;;;;;;;;;;;21.73;52.80;99728.31;4999276;27;99214;-70
2023/11/01 11:49:22;;;;;;;;;;;;;;;21.90;52.41;99731.78;5011461;27;98236;-64
2023/11/01 11:52:07;;;;;;;;;;;;;;;21.95;52.74;99729.53;4992037;27;98284;-70
2023/11/01 11:54:37;;;;;;;;;;;;;;;21.94;52.56;99717.00;4964395;27;98045;-70
2023/11/01 11:57:16;;;;;;;;;;;;;;;21.91;52.61;99725.16;4975129;27;99615;-70
2023/11/01 11:59:42;;;;;;;;;;;;;;;21.84;52.70;99725.00;4992775;27;98424;-64
2023/11/01 12:02:15;;;;;;;;;;;;;;;21.81;52.78;99719.09;4982711;27;99267;-70
2023/11/01 12:04:42;;;;;;;;;;;;;;;21.88;52.86;99723.13;4964186;27;97963;-70
2023/11/01 12:07:18;;;;;;;;;;;;;;;21.96;52.69;99713.88;4976248;27;98280;-64
2023/11/01 12:09:54;;;;;;;;;;;;;;;21.95;52.71;99707.59;4970233;27;98271;-64
2023/11/01 12:12:21;;;;;;;;;;;;;;;21.90;52.72;99704.38;4974856;27;99476;-70
2023/11/01 12:14:59;;;;;;;;;;;;;;;21.90;52.69;99712.59;5009277;27;98241;-64
2023/11/01 12:17:26;;;;;;;;;;;;;;;21.89;52.77;99709.06;4962594;27;98601;-70
2023/11/01 12:19:55;;;;;;;;;;;;;;;21.82;52.70;99697.94;4976461;27;101225;-64
2023/11/01 12:22:22;;;;;;;;;;;;;;;21.76;52.85;99705.66;4962724;27;99583;-70
2023/11/01 12:24:49;;;;;;;;;;;;;;;21.76;53.01;99700.16;4963600;27;98476;-70
2023/11/01 12:27:18;;;;;;;;;;;;;;;21.75;52.82;99697.78;4997073;27;98459;-64
2023/11/01 12:29:49;;;;;;;;;;;;;;;21.74;52.84;99694.25;4979914;27;98650;-64
2023/11/01 12:32:24;;;;;;;;;;;;;;;21.73;52.91;99692.69;4961978;27;98409;-70
2023/11/01 12:34:50;;;;;;;;;;;;;;;21.78;53.09;99680.63;4984346;27;98015;-64
2023/11/01 12:37:22;;;;;;;;;;;;;;;21.85;52.97;99680.78;4995116;27;99432;-64
2023/11/01 12:40:16;;;;;;;;;;;;;;;21.88;53.14;99681.97;4955097;27;98357;-64
2023/11/01 12:42:47;;;;;;;;;;;;;;;21.87;53.21;99680.41;4996001;27;98448;-70
2023/11/01 12:45:17;;;;;;;;;;;;;;;21.85;53.34;99675.28;5008758;27;98260;-64
2023/11/01 12:47:51;;;;;;;;;;;;;;;21.89;53.12;99669.84;4996616;27;98228;-64
2023/11/01 12:50:20;;;;;;;;;;;;;;;21.86;53.23;99668.63;4992119;27;98151;-64